createdAt,value
2019-04-11T00:00:37.186Z,9.30
2019-04-11T00:03:06.518Z,9.20
2019-04-11T00:05:36.981Z,9.20
2019-04-11T00:08:06.436Z,9.20
2019-04-11T00:10:37.407Z,9.30
2019-04-11T00:13:17.273Z,9.30
2019-04-11T00:15:38.732Z,9.30
2019-04-11T00:18:08.341Z,9.30
2019-04-11T00:20:37.617Z,9.30
2019-04-11T00:23:08.051Z,9.30
2019-04-11T00:25:37.821Z,9.30
2019-04-11T00:28:07.756Z,9.20
2019-04-11T00:30:37.333Z,9.20
2019-04-11T00:33:07.776Z,9.10
2019-04-11T00:35:37.347Z,9.10
2019-04-11T00:38:07.644Z,9.10
2019-04-11T00:40:37.453Z,9.00
2019-04-11T00:43:07.342Z,9.00
2019-04-11T00:45:37.971Z,8.90
2019-04-11T00:48:07.428Z,8.90
2019-04-11T00:50:37.212Z,8.80
2019-04-11T00:53:06.606Z,8.80
2019-04-11T00:55:35.863Z,8.80
2019-04-11T00:58:05.571Z,8.80
2019-04-11T01:00:35.530Z,8.80
2019-04-11T01:03:06.485Z,8.70
2019-04-11T01:05:36.017Z,8.70
2019-04-11T01:08:07.526Z,8.70
2019-04-11T01:10:36.978Z,8.70
2019-04-11T01:13:07.144Z,8.80
2019-04-11T01:15:38.593Z,8.70
2019-04-11T01:18:07.895Z,8.70
2019-04-11T01:20:37.725Z,8.70
2019-04-11T01:23:07.134Z,8.70
2019-04-11T01:25:36.861Z,8.70
2019-04-11T01:28:06.787Z,8.70
2019-04-11T01:30:41.073Z,8.60
2019-04-11T01:33:10.872Z,8.60
2019-04-11T01:35:40.211Z,8.60
2019-04-11T01:38:10.332Z,8.60
2019-04-11T01:40:40.114Z,8.50
2019-04-11T01:43:09.520Z,8.40
2019-04-11T01:45:38.928Z,8.30
2019-04-11T01:48:19.575Z,8.20
2019-04-11T01:50:50.217Z,8.20
2019-04-11T01:53:20.015Z,8.00
2019-04-11T01:55:50.430Z,8.00
2019-04-11T01:58:19.767Z,7.90
2019-04-11T02:00:56.915Z,8.00
2019-04-11T02:03:30.857Z,8.00
2019-04-11T02:06:01.209Z,8.00
2019-04-11T02:08:31.293Z,8.10
2019-04-11T02:11:01.346Z,8.10
2019-04-11T02:13:30.700Z,8.10
2019-04-11T02:16:01.333Z,8.00
2019-04-11T02:18:31.587Z,8.00
2019-04-11T02:21:01.054Z,8.00
2019-04-11T02:23:35.103Z,8.00
2019-04-11T02:26:07.065Z,8.00
2019-04-11T02:28:37.022Z,8.00
2019-04-11T02:31:09.085Z,8.00
2019-04-11T02:33:38.793Z,7.90
2019-04-11T02:36:11.299Z,7.90
2019-04-11T02:38:41.046Z,7.90
2019-04-11T02:41:11.971Z,7.90
2019-04-11T02:43:44.149Z,7.90
2019-04-11T02:46:21.793Z,7.80
2019-04-11T02:48:42.851Z,7.80
2019-04-11T02:51:14.493Z,7.80
2019-04-11T02:53:44.990Z,7.80
2019-04-11T02:56:14.911Z,7.70
2019-04-11T02:58:46.318Z,7.70
2019-04-11T03:01:15.633Z,7.60
2019-04-11T03:03:45.501Z,7.60
2019-04-11T03:06:15.320Z,7.50
2019-04-11T03:08:44.626Z,7.50
2019-04-11T03:11:14.346Z,7.50
2019-04-11T03:13:44.427Z,7.50
2019-04-11T03:16:29.379Z,7.40
2019-04-11T03:19:00.642Z,7.40
2019-04-11T03:21:20.362Z,7.40
2019-04-11T03:23:46.984Z,7.40
2019-04-11T03:26:18.912Z,7.40
2019-04-11T03:28:50.233Z,7.40
2019-04-11T03:32:08.152Z,7.40
2019-04-11T03:37:08.856Z,7.40
2019-04-11T03:39:10.546Z,7.40
2019-04-11T03:41:39.987Z,7.50
2019-04-11T03:44:00.337Z,7.50
2019-04-11T03:46:40.405Z,7.50
2019-04-11T03:49:03.909Z,7.50
2019-04-11T03:51:27.725Z,7.50
2019-04-11T03:53:59.165Z,7.50
2019-04-11T03:56:28.689Z,7.40
2019-04-11T03:58:58.460Z,7.30
2019-04-11T04:01:29.471Z,7.30
2019-04-11T04:04:00.475Z,7.30
2019-04-11T04:06:31.020Z,7.30
2019-04-11T04:09:02.589Z,7.30
2019-04-11T04:11:34.256Z,7.30
2019-04-11T04:14:17.798Z,7.30
2019-04-11T04:16:59.130Z,7.30
2019-04-11T04:19:32.657Z,7.40
2019-04-11T04:22:07.312Z,7.40
2019-04-11T04:24:39.940Z,7.40
2019-04-11T04:27:09.949Z,7.30
2019-04-11T04:29:41.108Z,7.30
2019-04-11T04:32:11.955Z,7.30
2019-04-11T04:34:42.259Z,7.20
2019-04-11T04:37:12.193Z,7.20
2019-04-11T04:39:43.565Z,7.20
2019-04-11T04:42:23.555Z,7.20
2019-04-11T04:44:45.189Z,7.20
2019-04-11T04:47:22.115Z,7.20
2019-04-11T04:49:46.015Z,7.10
2019-04-11T04:52:16.599Z,7.10
2019-04-11T04:54:46.575Z,7.10
2019-04-11T04:57:18.256Z,7.10
2019-04-11T04:59:48.990Z,7.10
2019-04-11T05:02:20.051Z,7.10
2019-04-11T05:04:49.624Z,7.10
2019-04-11T05:07:19.445Z,7.20
2019-04-11T05:09:50.329Z,7.20
2019-04-11T05:12:22.471Z,7.20
2019-04-11T05:14:52.181Z,7.20
2019-04-11T05:17:23.108Z,7.20
2019-04-11T05:19:54.414Z,7.20
2019-04-11T05:22:24.642Z,7.30
2019-04-11T05:24:55.550Z,7.30
2019-04-11T05:27:25.145Z,7.30
2019-04-11T05:29:54.486Z,7.30
2019-04-11T05:32:24.250Z,7.20
2019-04-11T05:34:54.747Z,7.20
2019-04-11T05:37:24.010Z,7.20
2019-04-11T05:39:53.503Z,7.30
2019-04-11T05:42:25.546Z,7.20
2019-04-11T05:44:54.696Z,7.30
2019-04-11T05:47:25.500Z,7.30
2019-04-11T05:50:07.584Z,7.20
2019-04-11T05:52:35.178Z,7.20
2019-04-11T05:55:11.488Z,7.20
2019-04-11T05:57:41.476Z,7.20
2019-04-11T06:00:19.555Z,7.20
2019-04-11T06:02:57.423Z,7.20
2019-04-11T06:05:36.043Z,7.20
2019-04-11T06:08:07.799Z,7.10
2019-04-11T06:10:42.795Z,7.10
2019-04-11T06:13:28.810Z,7.10
2019-04-11T06:16:02.625Z,7.10
2019-04-11T06:18:37.757Z,7.10
2019-04-11T06:21:09.985Z,7.10
2019-04-11T06:23:47.631Z,7.10
2019-04-11T06:26:35.065Z,7.00
2019-04-11T06:29:17.451Z,7.00
2019-04-11T06:31:59.239Z,7.00
2019-04-11T06:34:30.413Z,7.00
2019-04-11T06:37:05.522Z,7.00
2019-04-11T06:39:39.784Z,7.00
2019-04-11T06:42:10.835Z,7.00
2019-04-11T06:44:41.772Z,7.00
2019-04-11T06:47:29.183Z,7.00
2019-04-11T06:50:02.910Z,7.00
2019-04-11T06:52:34.946Z,6.90
2019-04-11T06:55:07.250Z,6.90
2019-04-11T06:57:40.842Z,6.90
2019-04-11T07:00:14.738Z,6.90
2019-04-11T07:03:05.489Z,6.90
2019-04-11T07:05:36.611Z,6.90
2019-04-11T07:08:07.676Z,6.90
2019-04-11T07:10:42.461Z,6.90
2019-04-11T07:13:30.482Z,7.00
2019-04-11T07:16:00.474Z,7.00
2019-04-11T07:18:35.606Z,7.00
2019-04-11T07:21:06.664Z,6.90
2019-04-11T07:23:55.440Z,6.90
2019-04-11T07:26:33.077Z,6.90
2019-04-11T07:29:07.114Z,6.90
2019-04-11T07:31:48.190Z,7.00
2019-04-11T07:34:36.183Z,7.00
2019-04-11T07:37:23.700Z,7.00
2019-04-11T07:39:58.597Z,7.10
2019-04-11T07:42:46.859Z,7.00
2019-04-11T07:45:20.947Z,7.00
2019-04-11T07:47:52.647Z,7.10
2019-04-11T07:50:23.130Z,7.00
2019-04-11T07:53:04.885Z,7.00
2019-04-11T07:55:34.847Z,6.90
2019-04-11T07:58:13.050Z,6.90
2019-04-11T08:01:01.440Z,7.00
2019-04-11T08:03:49.208Z,7.10
2019-04-11T08:06:37.063Z,7.20
2019-04-11T08:09:24.644Z,7.30
2019-04-11T08:11:58.385Z,7.30
2019-04-11T08:14:30.645Z,7.50
2019-04-11T08:17:25.440Z,7.50
2019-04-11T08:19:46.922Z,7.50
2019-04-11T08:22:33.012Z,7.60
2019-04-11T08:25:13.295Z,7.60
2019-04-11T08:28:01.383Z,7.70
2019-04-11T08:30:29.146Z,7.80
2019-04-11T08:33:04.393Z,7.80
2019-04-11T08:35:38.297Z,7.80
2019-04-11T08:38:09.918Z,8.00
2019-04-11T08:40:49.901Z,8.10
2019-04-11T08:43:23.795Z,8.10
2019-04-11T08:46:11.259Z,8.20
2019-04-11T08:48:48.979Z,8.20
2019-04-11T08:51:20.059Z,8.30
2019-04-11T08:54:07.562Z,8.40
2019-04-11T08:56:39.534Z,8.50
2019-04-11T08:59:21.529Z,8.50
2019-04-11T09:01:51.879Z,8.50
2019-04-11T09:04:40.012Z,8.60
2019-04-11T09:07:11.656Z,8.80
2019-04-11T09:09:59.833Z,8.90
2019-04-11T09:12:29.302Z,8.80
2019-04-11T09:17:56.502Z,9.00
2019-04-11T09:20:38.076Z,9.00
2019-04-11T09:23:07.698Z,9.10
2019-04-11T09:25:41.362Z,9.10
2019-04-11T09:28:13.299Z,9.20
2019-04-11T09:30:57.012Z,9.30
2019-04-11T09:33:35.062Z,9.60
2019-04-11T09:36:22.360Z,9.80
2019-04-11T09:38:53.259Z,10.00
2019-04-11T09:41:42.724Z,10.30
2019-04-11T09:44:14.646Z,10.60
2019-04-11T09:47:03.870Z,10.70
2019-04-11T09:49:43.431Z,10.90
2019-04-11T09:52:17.057Z,11.00
2019-04-11T09:54:48.458Z,11.30
2019-04-11T09:57:26.751Z,11.50
2019-04-11T10:00:14.264Z,11.80
2019-04-11T10:02:48.426Z,12.20
2019-04-11T10:05:20.146Z,12.40
2019-04-11T10:08:08.578Z,12.40
2019-04-11T10:10:41.866Z,12.10
2019-04-11T10:13:18.640Z,12.30
2019-04-11T10:16:00.154Z,12.50
2019-04-11T10:18:49.551Z,12.40
2019-04-11T10:21:21.270Z,12.10
2019-04-11T10:24:09.533Z,11.90
2019-04-11T10:26:56.305Z,11.60
2019-04-11T10:29:34.515Z,11.50
2019-04-11T10:32:05.152Z,11.40
2019-04-11T10:34:37.480Z,11.40
2019-04-11T10:37:09.591Z,11.40
2019-04-11T10:39:53.582Z,11.40
2019-04-11T10:42:24.434Z,11.70
2019-04-11T10:44:58.356Z,12.00
2019-04-11T10:47:29.323Z,12.30
2019-04-11T10:50:00.897Z,12.60
2019-04-11T10:52:31.915Z,12.80
2019-04-11T10:55:05.827Z,12.90
2019-04-11T10:57:46.694Z,13.10
2019-04-11T11:00:23.600Z,13.00
2019-04-11T11:02:55.740Z,12.80
2019-04-11T11:05:26.655Z,12.80
2019-04-11T11:07:57.627Z,12.70
2019-04-11T11:10:28.871Z,12.70
2019-04-11T11:13:12.018Z,12.60
2019-04-11T11:15:42.638Z,12.60
2019-04-11T11:19:01.932Z,12.40
2019-04-11T11:21:00.278Z,12.40
2019-04-11T11:23:46.026Z,12.70
2019-04-11T11:26:21.430Z,13.20
2019-04-11T11:29:09.927Z,13.90
2019-04-11T11:31:44.780Z,14.20
2019-04-11T11:34:20.337Z,14.80
2019-04-11T11:36:53.549Z,15.10
2019-04-11T11:39:26.908Z,15.30
2019-04-11T11:42:14.606Z,15.60
2019-04-11T11:44:55.292Z,15.80
2019-04-11T11:47:42.000Z,15.70
2019-04-11T11:50:18.135Z,15.70
2019-04-11T11:52:46.619Z,15.70
2019-04-11T11:55:20.058Z,15.50
2019-04-11T11:57:51.008Z,15.30
2019-04-11T12:00:23.480Z,15.20
2019-04-11T12:03:03.758Z,14.70
2019-04-11T12:05:34.803Z,14.80
2019-04-11T12:08:08.787Z,15.30
2019-04-11T12:10:41.646Z,15.90
2019-04-11T12:13:28.335Z,16.10
2019-04-11T12:16:18.274Z,16.00
2019-04-11T12:19:04.626Z,15.90
2019-04-11T12:21:36.675Z,15.80
2019-04-11T12:24:25.086Z,15.60
2019-04-11T12:27:02.402Z,15.60
2019-04-11T12:29:44.402Z,15.60
2019-04-11T12:32:14.796Z,15.80
2019-04-11T12:34:51.599Z,15.80
2019-04-11T12:37:22.640Z,15.40
2019-04-11T12:40:09.700Z,15.20
2019-04-11T12:42:40.764Z,14.80
2019-04-11T12:45:20.182Z,14.70
2019-04-11T12:47:49.643Z,14.40
2019-04-11T12:50:35.537Z,14.20
2019-04-11T12:53:06.483Z,14.10
2019-04-11T12:55:37.373Z,13.80
2019-04-11T12:58:08.414Z,13.90
2019-04-11T13:00:51.427Z,13.90
2019-04-11T13:03:31.242Z,13.90
2019-04-11T13:06:02.152Z,13.60
2019-04-11T13:08:48.254Z,13.40
2019-04-11T13:11:19.271Z,13.20
2019-04-11T13:13:58.783Z,13.10
2019-04-11T13:16:28.550Z,13.10
2019-04-11T13:19:16.939Z,13.00
2019-04-11T13:21:50.810Z,13.00
2019-04-11T13:24:39.714Z,13.00
2019-04-11T13:27:13.091Z,12.80
2019-04-11T13:29:44.047Z,12.70
2019-04-11T13:32:33.187Z,12.60
2019-04-11T13:35:10.154Z,12.60
2019-04-11T13:37:57.574Z,12.70
2019-04-11T13:40:28.680Z,12.70
2019-04-11T13:43:16.055Z,12.90
2019-04-11T13:45:52.818Z,12.90
2019-04-11T13:48:39.112Z,13.00
2019-04-11T13:51:25.515Z,13.10
2019-04-11T13:54:12.867Z,13.30
2019-04-11T13:56:52.626Z,13.60
2019-04-11T13:59:35.778Z,13.80
2019-04-11T14:02:17.259Z,13.70
2019-04-11T14:04:51.111Z,13.70
2019-04-11T14:07:23.619Z,13.80
2019-04-11T14:10:05.638Z,13.60
2019-04-11T14:12:35.004Z,13.60
2019-04-11T14:15:07.844Z,13.60
2019-04-11T14:17:53.975Z,13.40
2019-04-11T14:20:29.830Z,13.40
2019-04-11T14:23:00.236Z,13.60
2019-04-11T14:25:47.398Z,13.70
2019-04-11T14:28:18.318Z,13.70
2019-04-11T14:30:52.209Z,13.80
2019-04-11T14:33:23.567Z,13.90
2019-04-11T14:35:58.370Z,14.00
2019-04-11T14:38:32.045Z,13.90
2019-04-11T14:41:12.903Z,13.70
2019-04-11T14:43:56.255Z,13.60
2019-04-11T14:46:42.154Z,13.50
2019-04-11T14:49:12.194Z,13.20
2019-04-11T14:51:59.443Z,13.10
2019-04-11T14:54:30.442Z,13.10
2019-04-11T14:57:16.762Z,13.00
2019-04-11T14:59:54.038Z,13.00
2019-04-11T15:02:37.627Z,13.00
2019-04-11T15:05:14.567Z,13.00
2019-04-11T15:07:46.066Z,13.00
2019-04-11T15:10:29.738Z,13.00
2019-04-11T15:13:00.306Z,13.00
2019-04-11T15:15:31.239Z,12.80
2019-04-11T15:18:02.342Z,12.70
2019-04-11T15:20:54.661Z,12.60
2019-04-11T15:23:21.234Z,12.60
2019-04-11T15:26:10.091Z,12.50
2019-04-11T15:28:43.699Z,12.40
2019-04-11T15:31:18.491Z,12.30
2019-04-11T15:34:05.137Z,12.20
2019-04-11T15:36:36.307Z,12.20
2019-04-11T15:39:23.920Z,12.10
2019-04-11T15:42:01.887Z,12.10
2019-04-11T15:44:36.494Z,12.00
2019-04-11T15:47:07.427Z,12.10
2019-04-11T15:49:38.391Z,12.10
2019-04-11T15:52:09.271Z,12.00
2019-04-11T15:54:40.182Z,12.00
2019-04-11T15:57:13.859Z,12.00
2019-04-11T15:59:57.145Z,12.00
2019-04-11T16:02:31.131Z,12.00
2019-04-11T16:05:02.842Z,12.00
2019-04-11T16:07:37.338Z,12.00
2019-04-11T16:10:11.699Z,12.00
2019-04-11T16:12:40.751Z,11.90
2019-04-11T16:15:11.659Z,11.80
2019-04-11T16:17:58.779Z,11.70
2019-04-11T16:20:28.054Z,11.70
2019-04-11T16:23:15.485Z,11.60
2019-04-11T16:25:46.466Z,11.60
2019-04-11T16:28:35.794Z,11.60
2019-04-11T16:31:05.483Z,11.50
2019-04-11T16:33:45.853Z,11.50
2019-04-11T16:36:17.690Z,11.50
2019-04-11T16:38:49.791Z,11.40
2019-04-11T16:41:37.748Z,11.40
2019-04-11T16:44:18.471Z,11.30
2019-04-11T16:47:08.239Z,11.30
2019-04-11T16:49:36.915Z,11.30
2019-04-11T16:52:08.368Z,11.30
2019-04-11T16:54:39.781Z,11.30
2019-04-11T16:57:08.066Z,11.20
2019-04-11T16:59:37.359Z,11.20
2019-04-11T17:02:06.667Z,11.10
2019-04-11T17:04:36.038Z,11.20
2019-04-11T17:07:23.805Z,11.10
2019-04-11T17:09:56.920Z,11.20
2019-04-11T17:12:27.233Z,11.10
2019-04-11T17:14:56.697Z,11.00
2019-04-11T17:17:26.378Z,11.00
2019-04-11T17:19:55.683Z,11.00
2019-04-11T17:22:24.990Z,10.90
2019-04-11T17:24:54.238Z,10.80
2019-04-11T17:27:23.783Z,10.80
2019-04-11T17:29:55.388Z,10.80
2019-04-11T17:32:25.948Z,10.80
2019-04-11T17:34:55.986Z,10.80
2019-04-11T17:37:25.283Z,10.80
2019-04-11T17:39:54.618Z,10.80
2019-04-11T17:42:23.970Z,10.70
2019-04-11T17:44:53.247Z,10.70
2019-04-11T17:47:26.767Z,10.60
2019-04-11T17:49:53.505Z,10.70
2019-04-11T17:52:22.932Z,10.60
2019-04-11T17:54:54.344Z,10.60
2019-04-11T17:57:26.727Z,10.60
2019-04-11T17:59:56.789Z,10.60
2019-04-11T18:02:25.395Z,10.50
2019-04-11T18:04:54.675Z,10.50
2019-04-11T18:07:23.979Z,10.50
2019-04-11T18:09:55.748Z,10.50
2019-04-11T18:12:26.213Z,10.40
2019-04-11T18:14:55.160Z,10.40
2019-04-11T18:17:26.503Z,10.40
2019-04-11T18:19:56.019Z,10.40
2019-04-11T18:22:25.379Z,10.40
2019-04-11T18:24:54.683Z,10.40
2019-04-11T18:27:23.946Z,10.30
2019-04-11T18:29:53.643Z,10.20
2019-04-11T18:32:23.174Z,10.20
2019-04-11T18:34:52.535Z,10.10
2019-04-11T18:37:21.802Z,10.00
2019-04-11T18:39:51.087Z,9.90
2019-04-11T18:42:20.392Z,9.80
2019-04-11T18:44:49.652Z,9.80
2019-04-11T18:47:18.911Z,9.80
2019-04-11T18:49:48.307Z,9.80
2019-04-11T18:52:19.889Z,9.60
2019-04-11T18:54:48.599Z,9.60
2019-04-11T18:57:17.930Z,9.50
2019-04-11T18:59:47.199Z,9.40
2019-04-11T19:02:16.487Z,9.40
2019-04-11T19:04:45.826Z,9.40
2019-04-11T19:07:27.152Z,9.30
2019-04-11T19:09:46.511Z,9.30
2019-04-11T19:12:16.430Z,9.30
2019-04-11T19:14:46.111Z,9.20
2019-04-11T19:17:16.442Z,9.30
2019-04-11T19:19:48.663Z,9.30
2019-04-11T19:22:19.404Z,9.30
2019-04-11T19:24:48.687Z,9.30
2019-04-11T19:27:20.494Z,9.20
2019-04-11T19:29:48.850Z,9.20
2019-04-11T19:32:18.480Z,9.20
2019-04-11T19:34:47.739Z,9.20
2019-04-11T19:37:17.032Z,9.10
2019-04-11T19:39:46.382Z,9.00
2019-04-11T19:42:18.745Z,9.00
2019-04-11T19:44:49.441Z,8.90
2019-04-11T19:47:21.389Z,8.80
2019-04-11T19:49:48.481Z,8.80
2019-04-11T19:52:17.815Z,8.80
2019-04-11T19:54:47.166Z,8.80
2019-04-11T19:57:16.427Z,8.80
2019-04-11T19:59:45.771Z,8.80
2019-04-11T20:02:15.031Z,8.80
2019-04-11T20:04:46.513Z,8.70
2019-04-11T20:07:15.274Z,8.60
2019-04-11T20:09:44.560Z,8.60
2019-04-11T20:12:13.825Z,8.60
2019-04-11T20:14:43.107Z,8.50
2019-04-11T20:17:12.527Z,8.50
2019-04-11T20:19:41.883Z,8.40
2019-04-11T20:22:11.144Z,8.30
2019-04-11T20:24:40.498Z,8.40
2019-04-11T20:27:09.778Z,8.30
2019-04-11T20:29:39.046Z,8.30
2019-04-11T20:32:08.303Z,8.30
2019-04-11T20:34:38.480Z,8.30
2019-04-11T20:37:12.655Z,8.20
2019-04-11T20:39:39.327Z,8.20
2019-04-11T20:42:08.604Z,8.10
2019-04-11T20:44:37.871Z,8.10
2019-04-11T20:47:07.236Z,8.10
2019-04-11T20:49:38.159Z,8.10
2019-04-11T20:52:07.443Z,8.10
2019-04-11T20:54:38.513Z,8.20
2019-04-11T20:57:11.910Z,8.20
2019-04-11T20:59:42.254Z,8.10
2019-04-11T21:02:09.468Z,8.10
2019-04-11T21:04:38.760Z,8.10
2019-04-11T21:07:08.043Z,8.10
2019-04-11T21:09:37.305Z,8.10
2019-04-11T21:12:07.482Z,8.10
2019-04-11T21:14:37.515Z,8.00
2019-04-11T21:17:06.849Z,8.00
2019-04-11T21:19:36.123Z,7.90
2019-04-11T21:22:06.378Z,8.00
2019-04-11T21:24:35.635Z,8.00
2019-04-11T21:27:05.459Z,8.00
2019-04-11T21:29:34.763Z,7.90
2019-04-11T21:32:04.048Z,7.90
2019-04-11T21:34:33.312Z,7.90
2019-04-11T21:37:02.812Z,7.90
2019-04-11T21:39:32.152Z,7.90
2019-04-11T21:42:05.695Z,7.90
2019-04-11T21:44:35.986Z,7.90
2019-04-11T21:47:03.204Z,7.90
2019-04-11T21:49:36.629Z,7.90
2019-04-11T21:52:03.374Z,7.90
2019-04-11T21:54:33.127Z,7.90
2019-04-11T21:57:03.359Z,7.80
2019-04-11T21:59:32.642Z,7.90
2019-04-11T22:02:01.907Z,7.90
2019-04-11T22:04:31.379Z,7.90
2019-04-11T22:07:01.440Z,7.70
2019-04-11T22:09:32.980Z,7.70
2019-04-11T22:12:01.886Z,7.70
2019-04-11T22:14:31.343Z,7.70
2019-04-11T22:17:00.602Z,7.80
2019-04-11T22:19:29.892Z,7.80
2019-04-11T22:21:59.146Z,7.80
2019-04-11T22:24:28.435Z,7.80
2019-04-11T22:26:57.695Z,7.80
2019-04-11T22:29:28.355Z,7.70
2019-04-11T22:31:57.642Z,7.80
2019-04-11T22:34:38.831Z,7.80
2019-04-11T22:37:08.127Z,7.80
2019-04-11T22:39:37.381Z,7.80
2019-04-11T22:42:06.803Z,7.90
2019-04-11T22:44:37.942Z,7.90
2019-04-11T22:47:08.033Z,7.90
2019-04-11T22:49:39.368Z,7.80
2019-04-11T22:52:11.355Z,7.80
2019-04-11T22:54:41.215Z,7.90
2019-04-11T22:57:12.181Z,7.90
2019-04-11T22:59:43.867Z,7.80
2019-04-11T23:02:16.860Z,7.80
2019-04-11T23:04:47.173Z,7.80
2019-04-11T23:07:17.784Z,7.80
2019-04-11T23:09:48.902Z,7.80
2019-04-11T23:12:17.826Z,7.80
2019-04-11T23:14:47.100Z,7.70
2019-04-11T23:17:16.402Z,7.70
2019-04-11T23:19:45.735Z,7.60
2019-04-11T23:22:15.023Z,7.60
2019-04-11T23:24:44.288Z,7.50
2019-04-11T23:27:13.571Z,7.50
2019-04-11T23:29:44.772Z,7.50
2019-04-11T23:32:13.775Z,7.50
2019-04-11T23:34:43.055Z,7.40
2019-04-11T23:37:12.322Z,7.40
2019-04-11T23:39:41.607Z,7.40
2019-04-11T23:42:10.871Z,7.40
2019-04-11T23:44:40.151Z,7.40
2019-04-11T23:47:09.478Z,7.40
2019-04-11T23:49:38.766Z,7.30
2019-04-11T23:52:08.027Z,7.30
2019-04-11T23:54:37.310Z,7.20
2019-04-11T23:57:06.584Z,7.20
2019-04-11T23:59:35.859Z,7.20
